createdAt,value
2018-12-13T00:00:13.533Z,2.90
2018-12-13T00:01:16.066Z,2.90
2018-12-13T00:02:18.566Z,2.90
2018-12-13T00:03:21.122Z,2.90
2018-12-13T00:04:23.629Z,2.80
2018-12-13T00:05:26.173Z,2.90
2018-12-13T00:06:33.364Z,2.90
2018-12-13T00:07:33.189Z,2.90
2018-12-13T00:08:35.704Z,2.80
2018-12-13T00:09:38.210Z,2.80
2018-12-13T00:10:40.757Z,2.80
2018-12-13T00:11:43.262Z,2.80
2018-12-13T00:12:45.757Z,2.70
2018-12-13T00:13:48.261Z,2.70
2018-12-13T00:14:50.770Z,2.80
2018-12-13T00:15:53.309Z,2.80
2018-12-13T00:16:55.808Z,2.70
2018-12-13T00:17:58.313Z,2.70
2018-12-13T00:19:00.879Z,2.70
2018-12-13T00:20:03.774Z,2.60
2018-12-13T00:21:06.314Z,2.60
2018-12-13T00:22:08.814Z,2.60
2018-12-13T00:23:11.309Z,2.60
2018-12-13T00:24:13.874Z,2.50
2018-12-13T00:25:16.457Z,2.50
2018-12-13T00:26:19.037Z,2.50
2018-12-13T00:27:21.536Z,2.50
2018-12-13T00:28:24.045Z,2.50
2018-12-13T00:29:26.547Z,2.60
2018-12-13T00:30:29.077Z,2.60
2018-12-13T00:31:31.603Z,2.60
2018-12-13T00:32:34.132Z,2.60
2018-12-13T00:33:36.633Z,2.60
2018-12-13T00:34:39.131Z,2.60
2018-12-13T00:35:41.633Z,2.50
2018-12-13T00:36:44.168Z,2.50
2018-12-13T00:37:46.700Z,2.40
2018-12-13T00:38:49.232Z,2.40
2018-12-13T00:39:51.785Z,2.40
2018-12-13T00:40:54.285Z,2.30
2018-12-13T00:41:56.794Z,2.30
2018-12-13T00:42:59.297Z,2.30
2018-12-13T00:44:01.876Z,2.20
2018-12-13T00:45:05.465Z,2.20
2018-12-13T00:46:07.998Z,2.20
2018-12-13T00:47:10.510Z,2.20
2018-12-13T00:48:13.018Z,2.10
2018-12-13T00:49:15.552Z,2.10
2018-12-13T00:50:18.049Z,2.10
2018-12-13T00:51:20.552Z,2.10
2018-12-13T00:52:23.081Z,2.00
2018-12-13T00:53:25.578Z,2.10
2018-12-13T00:54:28.168Z,2.00
2018-12-13T00:55:30.718Z,2.00
2018-12-13T00:56:33.254Z,2.00
2018-12-13T00:57:35.763Z,1.90
2018-12-13T00:58:38.310Z,1.90
2018-12-13T00:59:40.937Z,1.90
2018-12-13T01:00:43.454Z,1.90
2018-12-13T01:01:45.966Z,1.90
2018-12-13T01:02:48.469Z,1.80
2018-12-13T01:03:51.006Z,1.80
2018-12-13T01:04:53.505Z,1.80
2018-12-13T01:05:56.010Z,1.80
2018-12-13T01:06:58.524Z,1.80
2018-12-13T01:08:01.043Z,1.80
2018-12-13T01:09:04.978Z,1.80
2018-12-13T01:10:07.593Z,1.80
2018-12-13T01:11:10.112Z,1.80
2018-12-13T01:12:12.666Z,1.80
2018-12-13T01:13:15.197Z,1.80
2018-12-13T01:14:17.751Z,1.80
2018-12-13T01:15:20.260Z,1.80
2018-12-13T01:16:23.685Z,1.80
2018-12-13T01:17:26.185Z,1.70
2018-12-13T01:18:28.733Z,1.70
2018-12-13T01:19:31.281Z,1.70
2018-12-13T01:20:33.782Z,1.70
2018-12-13T01:21:36.280Z,1.70
2018-12-13T01:22:38.781Z,1.70
2018-12-13T01:23:41.283Z,1.70
2018-12-13T01:24:43.810Z,1.70
2018-12-13T01:25:46.347Z,1.70
2018-12-13T01:26:48.857Z,1.80
2018-12-13T01:27:51.353Z,1.80
2018-12-13T01:28:53.853Z,1.80
2018-12-13T01:29:56.393Z,1.80
2018-12-13T01:30:58.937Z,1.80
2018-12-13T01:32:01.438Z,1.80
2018-12-13T01:33:03.937Z,1.80
2018-12-13T01:34:06.451Z,1.80
2018-12-13T01:35:09.013Z,1.70
2018-12-13T01:36:11.597Z,1.70
2018-12-13T01:37:14.097Z,1.70
2018-12-13T01:38:16.599Z,1.70
2018-12-13T01:39:19.097Z,1.70
2018-12-13T01:40:21.602Z,1.70
2018-12-13T01:41:24.133Z,1.70
2018-12-13T01:42:26.637Z,1.70
2018-12-13T01:43:29.134Z,1.70
2018-12-13T01:44:31.630Z,1.60
2018-12-13T01:45:34.412Z,1.70
2018-12-13T01:46:36.943Z,1.70
2018-12-13T01:47:39.482Z,1.60
2018-12-13T01:48:41.981Z,1.50
2018-12-13T01:49:44.498Z,1.40
2018-12-13T01:50:46.999Z,1.30
2018-12-13T01:51:49.500Z,1.30
2018-12-13T01:52:52.039Z,1.10
2018-12-13T01:53:54.590Z,1.10
2018-12-13T01:54:57.092Z,1.10
2018-12-13T01:55:59.600Z,1.10
2018-12-13T01:57:02.137Z,1.00
2018-12-13T01:58:04.697Z,0.90
2018-12-13T01:59:07.222Z,0.80
2018-12-13T02:00:09.829Z,0.80
2018-12-13T02:01:12.341Z,0.70
2018-12-13T02:02:14.878Z,0.60
2018-12-13T02:03:17.388Z,0.60
2018-12-13T02:04:19.946Z,0.60
2018-12-13T02:05:22.493Z,0.50
2018-12-13T02:06:25.044Z,0.40
2018-12-13T02:07:27.554Z,0.40
2018-12-13T02:08:30.104Z,0.40
2018-12-13T02:09:32.614Z,0.30
2018-12-13T02:10:35.145Z,0.40
2018-12-13T02:11:37.697Z,0.50
2018-12-13T02:12:40.202Z,0.60
2018-12-13T02:13:43.562Z,0.50
2018-12-13T02:14:46.078Z,0.40
2018-12-13T02:15:48.601Z,0.40
2018-12-13T02:16:51.102Z,0.40
2018-12-13T02:17:53.597Z,0.30
2018-12-13T02:18:56.134Z,0.30
2018-12-13T02:19:58.637Z,0.20
2018-12-13T02:21:01.650Z,0.20
2018-12-13T02:22:04.208Z,0.20
2018-12-13T02:23:06.717Z,0.20
2018-12-13T02:24:09.261Z,0.20
2018-12-13T02:25:11.833Z,0.20
2018-12-13T02:26:14.345Z,0.20
2018-12-13T02:27:16.897Z,0.20
2018-12-13T02:28:19.397Z,0.20
2018-12-13T02:29:21.938Z,0.10
2018-12-13T02:30:24.474Z,0.10
2018-12-13T02:31:27.005Z,0.10
2018-12-13T02:32:29.512Z,0.10
2018-12-13T02:33:32.013Z,0.10
2018-12-13T02:34:34.517Z,0.10
2018-12-13T02:35:37.032Z,0.10
2018-12-13T02:36:39.566Z,0.10
2018-12-13T02:37:42.107Z,0.10
2018-12-13T02:38:44.645Z,0.10
2018-12-13T02:39:47.151Z,0.10
2018-12-13T02:40:49.700Z,0.10
2018-12-13T02:41:52.209Z,0.10
2018-12-13T02:42:54.720Z,0.10
2018-12-13T02:43:57.254Z,0.00
2018-12-13T02:44:59.766Z,0.10
2018-12-13T02:46:02.292Z,0.10
2018-12-13T02:47:04.793Z,0.10
2018-12-13T02:48:07.309Z,0.10
2018-12-13T02:49:09.815Z,0.10
2018-12-13T02:50:12.476Z,0.10
2018-12-13T02:51:15.011Z,0.10
2018-12-13T02:52:17.566Z,0.10
2018-12-13T02:53:20.122Z,0.10
2018-12-13T02:54:22.628Z,0.10
2018-12-13T02:55:25.125Z,0.10
2018-12-13T02:56:27.625Z,0.00
2018-12-13T02:57:30.166Z,0.10
2018-12-13T02:58:32.725Z,0.00
2018-12-13T02:59:35.268Z,0.00
2018-12-13T03:00:37.779Z,0.00
2018-12-13T03:01:40.319Z,0.00
2018-12-13T03:02:42.873Z,0.00
2018-12-13T03:03:45.372Z,0.00
2018-12-13T03:04:47.881Z,0.00
2018-12-13T03:05:50.426Z,0.00
2018-12-13T03:06:52.925Z,0.00
2018-12-13T03:07:55.522Z,0.00
2018-12-13T03:08:58.083Z,0.00
2018-12-13T03:10:00.598Z,-0.10
2018-12-13T03:11:03.151Z,0.00
2018-12-13T03:12:05.760Z,0.00
2018-12-13T03:13:08.365Z,0.00
2018-12-13T03:14:10.870Z,0.10
2018-12-13T03:15:13.388Z,0.00
2018-12-13T03:16:15.899Z,0.00
2018-12-13T03:17:18.490Z,-0.10
2018-12-13T03:18:20.996Z,0.00
2018-12-13T03:19:23.548Z,-0.10
2018-12-13T03:20:26.064Z,-0.10
2018-12-13T03:21:28.570Z,-0.10
2018-12-13T03:22:31.116Z,-0.20
2018-12-13T03:23:33.641Z,-0.20
2018-12-13T03:24:36.249Z,-0.30
2018-12-13T03:25:38.762Z,-0.30
2018-12-13T03:26:41.306Z,-0.20
2018-12-13T03:27:43.813Z,-0.20
2018-12-13T03:28:46.330Z,-0.30
2018-12-13T03:29:48.838Z,-0.30
2018-12-13T03:30:51.378Z,-0.30
2018-12-13T03:31:53.896Z,-0.30
2018-12-13T03:32:56.430Z,-0.30
2018-12-13T03:33:58.942Z,-0.40
2018-12-13T03:35:01.454Z,-0.30
2018-12-13T03:36:04.003Z,-0.20
2018-12-13T03:37:06.522Z,-0.20
2018-12-13T03:38:09.073Z,-0.10
2018-12-13T03:39:11.581Z,-0.20
2018-12-13T03:40:14.080Z,-0.10
2018-12-13T03:41:16.580Z,-0.20
2018-12-13T03:42:19.090Z,-0.20
2018-12-13T03:43:22.287Z,-0.10
2018-12-13T03:44:24.796Z,-0.10
2018-12-13T03:45:27.307Z,-0.10
2018-12-13T03:46:29.834Z,-0.20
2018-12-13T03:47:32.362Z,-0.20
2018-12-13T03:48:34.878Z,-0.30
2018-12-13T03:49:37.396Z,-0.30
2018-12-13T03:50:39.922Z,-0.20
2018-12-13T03:51:42.437Z,-0.10
2018-12-13T03:52:45.002Z,-0.10
2018-12-13T03:53:47.506Z,-0.10
2018-12-13T03:54:50.014Z,-0.10
2018-12-13T03:55:52.523Z,-0.10
2018-12-13T03:56:55.043Z,-0.10
2018-12-13T03:57:57.590Z,0.00
2018-12-13T03:59:00.142Z,0.00
2018-12-13T04:00:02.899Z,0.00
2018-12-13T04:01:05.402Z,0.00
2018-12-13T04:02:07.954Z,0.10
2018-12-13T04:03:10.490Z,0.10
2018-12-13T04:04:12.989Z,0.10
2018-12-13T04:05:15.490Z,0.10
2018-12-13T04:06:18.058Z,0.00
2018-12-13T04:07:27.605Z,-0.10
2018-12-13T04:08:25.181Z,-0.20
2018-12-13T04:09:27.690Z,-0.20
2018-12-13T04:10:30.198Z,-0.20
2018-12-13T04:11:32.709Z,-0.20
2018-12-13T04:12:35.242Z,-0.20
2018-12-13T04:13:37.766Z,-0.20
2018-12-13T04:14:40.281Z,-0.20
2018-12-13T04:15:42.842Z,-0.10
2018-12-13T04:16:45.350Z,-0.10
2018-12-13T04:17:47.858Z,-0.10
2018-12-13T04:18:50.421Z,-0.10
2018-12-13T04:19:52.930Z,0.00
2018-12-13T04:20:55.438Z,0.10
2018-12-13T04:21:59.897Z,0.10
2018-12-13T04:23:02.440Z,0.00
2018-12-13T04:24:04.958Z,-0.10
2018-12-13T04:25:07.577Z,-0.10
2018-12-13T04:26:10.121Z,-0.20
2018-12-13T04:27:12.633Z,-0.30
2018-12-13T04:28:15.152Z,-0.40
2018-12-13T04:29:17.693Z,-0.40
2018-12-13T04:30:20.199Z,-0.50
2018-12-13T04:31:22.776Z,-0.50
2018-12-13T04:32:25.338Z,-0.50
2018-12-13T04:33:27.837Z,-0.50
2018-12-13T04:34:30.387Z,-0.50
2018-12-13T04:35:32.930Z,-0.50
2018-12-13T04:36:35.433Z,-0.50
2018-12-13T04:37:37.942Z,-0.60
2018-12-13T04:38:40.453Z,-0.50
2018-12-13T04:39:43.016Z,-0.50
2018-12-13T04:40:45.530Z,-0.50
2018-12-13T04:41:48.078Z,-0.50
2018-12-13T04:42:50.587Z,-0.50
2018-12-13T04:43:53.096Z,-0.50
2018-12-13T04:44:55.604Z,-0.40
2018-12-13T04:45:58.116Z,-0.40
2018-12-13T04:47:00.667Z,-0.40
2018-12-13T04:48:03.263Z,-0.40
2018-12-13T04:49:05.779Z,-0.30
2018-12-13T04:50:08.299Z,-0.30
2018-12-13T04:51:10.813Z,-0.30
2018-12-13T04:52:13.322Z,-0.30
2018-12-13T04:53:15.917Z,-0.40
2018-12-13T04:54:18.477Z,-0.30
2018-12-13T04:55:20.982Z,-0.40
2018-12-13T04:56:23.541Z,-0.40
2018-12-13T04:57:26.134Z,-0.40
2018-12-13T04:58:28.637Z,-0.30
2018-12-13T04:59:31.169Z,-0.40
2018-12-13T05:00:33.701Z,-0.40
2018-12-13T05:01:36.215Z,-0.40
2018-12-13T05:02:38.848Z,-0.50
2018-12-13T05:03:41.361Z,-0.50
2018-12-13T05:04:43.893Z,-0.40
2018-12-13T05:05:46.437Z,-0.40
2018-12-13T05:06:48.945Z,-0.40
2018-12-13T05:07:51.466Z,-0.40
2018-12-13T05:08:54.005Z,-0.40
2018-12-13T05:09:56.549Z,-0.40
2018-12-13T05:10:59.057Z,-0.30
2018-12-13T05:12:01.562Z,-0.30
2018-12-13T05:13:04.196Z,-0.30
2018-12-13T05:14:06.703Z,-0.30
2018-12-13T05:15:09.214Z,-0.30
2018-12-13T05:16:11.721Z,-0.40
2018-12-13T05:17:14.335Z,-0.40
2018-12-13T05:18:16.873Z,-0.30
2018-12-13T05:19:19.377Z,-0.20
2018-12-13T05:20:21.893Z,-0.10
2018-12-13T05:21:24.400Z,-0.10
2018-12-13T05:22:26.938Z,-0.10
2018-12-13T05:23:29.437Z,0.00
2018-12-13T05:24:31.934Z,0.20
2018-12-13T05:25:34.437Z,0.20
2018-12-13T05:26:36.940Z,0.20
2018-12-13T05:27:39.488Z,0.10
2018-12-13T05:28:41.998Z,0.10
2018-12-13T05:29:44.522Z,0.10
2018-12-13T05:30:47.072Z,0.10
2018-12-13T05:31:49.677Z,0.10
2018-12-13T05:32:52.236Z,0.20
2018-12-13T05:33:54.728Z,0.20
2018-12-13T05:34:57.230Z,0.20
2018-12-13T05:35:59.754Z,0.10
2018-12-13T05:37:02.341Z,0.10
2018-12-13T05:38:04.847Z,0.10
2018-12-13T05:39:07.470Z,0.10
2018-12-13T05:40:09.974Z,0.10
2018-12-13T05:41:12.534Z,0.10
2018-12-13T05:42:15.153Z,0.10
2018-12-13T05:43:17.665Z,0.10
2018-12-13T05:44:20.731Z,0.10
2018-12-13T05:45:23.237Z,0.00
2018-12-13T05:46:25.863Z,0.00
2018-12-13T05:47:28.389Z,0.00
2018-12-13T05:48:30.902Z,0.00
2018-12-13T05:49:33.442Z,0.00
2018-12-13T05:50:35.945Z,0.00
2018-12-13T05:51:38.448Z,0.00
2018-12-13T05:52:41.002Z,0.00
2018-12-13T05:53:43.544Z,0.00
2018-12-13T05:54:46.049Z,0.00
2018-12-13T05:55:48.602Z,0.00
2018-12-13T05:56:51.219Z,0.00
2018-12-13T05:57:53.816Z,0.00
2018-12-13T05:58:56.346Z,0.00
2018-12-13T05:59:58.898Z,0.00
2018-12-13T06:01:01.402Z,0.00
2018-12-13T06:02:03.920Z,0.10
2018-12-13T06:03:06.423Z,0.10
2018-12-13T06:04:08.925Z,0.10
2018-12-13T06:05:11.449Z,0.10
2018-12-13T06:06:13.953Z,0.10
2018-12-13T06:07:16.462Z,0.10
2018-12-13T06:08:18.961Z,0.10
2018-12-13T06:09:21.473Z,0.10
2018-12-13T06:10:24.012Z,0.10
2018-12-13T06:11:26.551Z,0.10
2018-12-13T06:12:29.045Z,0.10
2018-12-13T06:13:31.549Z,0.10
2018-12-13T06:14:34.057Z,0.10
2018-12-13T06:15:36.605Z,0.10
2018-12-13T06:16:39.100Z,0.10
2018-12-13T06:17:41.610Z,0.10
2018-12-13T06:18:44.164Z,0.10
2018-12-13T06:19:46.671Z,0.00
2018-12-13T06:20:49.194Z,-0.10
2018-12-13T06:21:51.704Z,-0.20
2018-12-13T06:22:54.252Z,-0.10
2018-12-13T06:23:56.762Z,-0.10
2018-12-13T06:24:59.341Z,0.00
2018-12-13T06:26:01.857Z,0.00
2018-12-13T06:27:04.405Z,-0.20
2018-12-13T06:28:06.923Z,-0.20
2018-12-13T06:29:09.433Z,-0.10
2018-12-13T06:30:11.993Z,-0.10
2018-12-13T06:31:14.494Z,-0.10
2018-12-13T06:32:17.045Z,-0.10
2018-12-13T06:33:24.763Z,-0.10
2018-12-13T06:34:24.092Z,-0.10
2018-12-13T06:35:26.649Z,-0.10
2018-12-13T06:36:29.155Z,0.00
2018-12-13T06:37:31.700Z,-0.10
2018-12-13T06:38:34.205Z,-0.20
2018-12-13T06:39:36.719Z,-0.20
2018-12-13T06:40:39.249Z,-0.30
2018-12-13T06:41:41.789Z,-0.30
2018-12-13T06:42:44.306Z,-0.40
2018-12-13T06:43:46.826Z,-0.40
2018-12-13T06:44:49.333Z,-0.40
2018-12-13T06:45:51.886Z,-0.40
2018-12-13T06:46:54.746Z,-0.50
2018-12-13T06:47:57.261Z,-0.50
2018-12-13T06:48:59.769Z,-0.50
2018-12-13T06:50:02.375Z,-0.50
2018-12-13T06:51:04.889Z,-0.60
2018-12-13T06:52:07.477Z,-0.60
2018-12-13T06:53:09.993Z,-0.60
2018-12-13T06:54:12.505Z,-0.50
2018-12-13T06:55:15.015Z,-0.40
2018-12-13T06:56:17.533Z,-0.40
2018-12-13T06:57:20.074Z,-0.50
2018-12-13T06:58:22.582Z,-0.50
2018-12-13T06:59:25.091Z,-0.50
2018-12-13T07:00:27.597Z,-0.50
2018-12-13T07:01:30.117Z,-0.40
2018-12-13T07:02:32.658Z,-0.40
2018-12-13T07:03:35.213Z,-0.40
2018-12-13T07:04:37.713Z,-0.30
2018-12-13T07:05:40.225Z,-0.20
2018-12-13T07:06:42.735Z,-0.10
2018-12-13T07:07:45.290Z,-0.10
2018-12-13T07:08:47.826Z,0.00
2018-12-13T07:09:50.344Z,0.00
2018-12-13T07:10:52.862Z,0.00
2018-12-13T07:11:55.368Z,0.00
2018-12-13T07:12:57.910Z,0.10
2018-12-13T07:14:00.453Z,0.10
2018-12-13T07:15:03.354Z,0.10
2018-12-13T07:17:14.934Z,0.10
2018-12-13T07:18:17.445Z,0.10
2018-12-13T07:19:20.026Z,0.10
2018-12-13T07:20:22.540Z,0.10
2018-12-13T07:21:25.046Z,0.00
2018-12-13T07:22:27.561Z,-0.10
2018-12-13T07:23:30.069Z,-0.10
2018-12-13T07:24:32.605Z,-0.20
2018-12-13T07:25:35.124Z,-0.20
2018-12-13T07:26:37.645Z,-0.30
2018-12-13T07:27:40.153Z,-0.40
2018-12-13T07:29:51.701Z,-0.50
2018-12-13T07:30:54.333Z,-0.40
2018-12-13T07:31:56.878Z,-0.40
2018-12-13T07:32:59.394Z,-0.40
2018-12-13T07:34:01.897Z,-0.40
2018-12-13T07:35:06.014Z,-0.30
2018-12-13T07:36:08.609Z,-0.30
2018-12-13T07:37:11.129Z,-0.30
2018-12-13T07:38:14.486Z,-0.40
2018-12-13T07:39:17.230Z,-0.40
2018-12-13T07:40:19.747Z,-0.40
2018-12-13T07:41:22.301Z,-0.40
2018-12-13T07:42:24.805Z,-0.30
2018-12-13T07:43:27.314Z,-0.30
2018-12-13T07:44:29.833Z,-0.30
2018-12-13T07:45:32.372Z,-0.40
2018-12-13T07:46:34.885Z,-0.40
2018-12-13T07:47:37.394Z,-0.40
2018-12-13T07:48:39.909Z,-0.40
2018-12-13T07:49:42.417Z,-0.40
2018-12-13T07:50:45.099Z,-0.30
2018-12-13T07:51:47.617Z,-0.30
2018-12-13T07:52:50.121Z,-0.30
2018-12-13T07:53:52.641Z,-0.30
2018-12-13T07:54:55.166Z,-0.30
2018-12-13T07:55:57.715Z,-0.40
2018-12-13T07:57:00.263Z,-0.30
2018-12-13T07:58:02.786Z,-0.30
2018-12-13T07:59:05.305Z,-0.30
2018-12-13T08:00:08.364Z,-0.30
2018-12-13T08:01:10.910Z,-0.30
2018-12-13T08:02:13.428Z,-0.20
2018-12-13T08:03:15.961Z,-0.20
2018-12-13T08:04:18.474Z,-0.20
2018-12-13T08:05:21.005Z,-0.10
2018-12-13T08:06:23.511Z,0.10
2018-12-13T08:07:26.045Z,0.20
2018-12-13T08:08:28.549Z,0.20
2018-12-13T08:09:31.071Z,0.30
2018-12-13T08:10:33.581Z,0.40
2018-12-13T08:11:36.094Z,0.40
2018-12-13T08:12:38.637Z,0.40
2018-12-13T08:13:41.140Z,0.50
2018-12-13T08:14:43.651Z,0.60
2018-12-13T08:15:46.170Z,0.60
2018-12-13T08:16:48.731Z,0.70
2018-12-13T08:17:51.288Z,0.70
2018-12-13T08:18:53.855Z,0.70
2018-12-13T08:19:56.365Z,0.70
2018-12-13T08:20:58.869Z,0.60
2018-12-13T08:22:01.378Z,0.60
2018-12-13T08:23:04.014Z,0.60
2018-12-13T08:24:06.574Z,0.50
2018-12-13T08:25:09.134Z,0.60
2018-12-13T08:26:11.681Z,0.60
2018-12-13T08:27:14.195Z,0.60
2018-12-13T08:28:16.690Z,0.70
2018-12-13T08:29:19.225Z,0.70
2018-12-13T08:30:21.765Z,0.60
2018-12-13T08:31:24.273Z,0.70
2018-12-13T08:32:26.777Z,0.70
2018-12-13T08:33:29.297Z,0.70
2018-12-13T08:34:31.839Z,0.80
2018-12-13T08:35:34.348Z,0.80
2018-12-13T08:36:36.853Z,0.80
2018-12-13T08:37:39.365Z,0.90
2018-12-13T08:38:41.872Z,0.90
2018-12-13T08:39:44.430Z,0.90
2018-12-13T08:40:46.937Z,1.00
2018-12-13T08:41:49.449Z,1.00
2018-12-13T08:42:51.954Z,1.00
2018-12-13T08:43:54.465Z,1.00
2018-12-13T08:44:57.011Z,1.10
2018-12-13T08:45:59.514Z,1.10
2018-12-13T08:47:02.078Z,1.10
2018-12-13T08:48:04.582Z,1.00
2018-12-13T08:49:07.087Z,1.10
2018-12-13T08:50:09.624Z,1.10
2018-12-13T08:51:12.157Z,1.10
2018-12-13T08:52:14.706Z,1.10
2018-12-13T08:53:17.214Z,1.20
2018-12-13T08:54:19.718Z,1.20
2018-12-13T08:55:22.241Z,1.10
2018-12-13T08:56:24.805Z,1.20
2018-12-13T08:57:27.353Z,1.20
2018-12-13T08:58:29.863Z,1.20
2018-12-13T08:59:32.405Z,1.10
2018-12-13T09:00:34.917Z,1.10
2018-12-13T09:01:37.532Z,1.10
2018-12-13T09:02:40.078Z,1.20
2018-12-13T09:03:42.582Z,1.20
2018-12-13T09:04:45.095Z,1.20
2018-12-13T09:05:47.610Z,1.30
2018-12-13T09:06:50.205Z,1.30
2018-12-13T09:07:52.716Z,1.40
2018-12-13T09:08:55.234Z,1.50
2018-12-13T09:09:57.737Z,1.50
2018-12-13T09:11:00.254Z,1.40
2018-12-13T09:12:02.860Z,1.40
2018-12-13T09:13:05.379Z,1.40
2018-12-13T09:14:07.895Z,1.40
2018-12-13T09:15:10.456Z,1.40
2018-12-13T09:16:12.999Z,1.50
2018-12-13T09:17:15.556Z,1.50
2018-12-13T09:18:18.063Z,1.50
2018-12-13T09:19:20.619Z,1.60
2018-12-13T09:20:23.167Z,1.50
2018-12-13T09:21:25.665Z,1.50
2018-12-13T09:22:28.218Z,1.50
2018-12-13T09:23:30.721Z,1.50
2018-12-13T09:24:33.232Z,1.50
2018-12-13T09:25:35.755Z,1.50
2018-12-13T09:26:38.310Z,1.50
2018-12-13T09:27:40.809Z,1.60
2018-12-13T09:28:43.313Z,1.60
2018-12-13T09:29:45.825Z,1.60
2018-12-13T09:30:48.329Z,1.60
2018-12-13T09:31:50.923Z,1.50
2018-12-13T09:32:53.441Z,1.40
2018-12-13T09:33:55.952Z,1.30
2018-12-13T09:34:58.581Z,1.20
2018-12-13T09:36:01.098Z,1.10
2018-12-13T09:37:03.646Z,1.20
2018-12-13T09:38:06.202Z,1.20
2018-12-13T09:39:08.767Z,1.30
2018-12-13T09:40:11.289Z,1.30
2018-12-13T09:41:13.800Z,1.40
2018-12-13T09:42:16.407Z,1.50
2018-12-13T09:43:18.917Z,1.60
2018-12-13T09:44:21.425Z,1.50
2018-12-13T09:45:23.972Z,1.60
2018-12-13T09:46:26.485Z,1.60
2018-12-13T09:47:28.985Z,1.70
2018-12-13T09:48:31.535Z,1.70
2018-12-13T09:49:34.041Z,1.70
2018-12-13T09:50:36.545Z,1.70
2018-12-13T09:51:39.093Z,1.60
2018-12-13T09:52:41.624Z,1.60
2018-12-13T09:53:44.135Z,1.70
2018-12-13T09:54:46.681Z,1.70
2018-12-13T09:55:49.190Z,1.70
2018-12-13T09:56:51.693Z,1.70
2018-12-13T09:57:54.196Z,1.70
2018-12-13T09:58:56.746Z,1.60
2018-12-13T09:59:59.265Z,1.60
2018-12-13T10:01:01.773Z,1.70
2018-12-13T10:02:04.329Z,1.60
2018-12-13T10:03:06.875Z,1.50
2018-12-13T10:04:09.421Z,1.50
2018-12-13T10:05:12.046Z,1.60
2018-12-13T10:06:14.545Z,1.60
2018-12-13T10:07:17.053Z,1.60
2018-12-13T10:08:19.554Z,1.60
2018-12-13T10:09:22.097Z,1.60
2018-12-13T10:10:24.657Z,1.70
2018-12-13T10:11:27.169Z,1.70
2018-12-13T10:12:29.718Z,1.60
2018-12-13T10:13:32.258Z,1.60
2018-12-13T10:14:34.802Z,1.60
2018-12-13T10:15:37.322Z,1.60
2018-12-13T10:16:39.837Z,1.60
2018-12-13T10:17:42.346Z,1.60
2018-12-13T10:18:44.869Z,1.50
2018-12-13T10:19:47.414Z,1.50
2018-12-13T10:20:49.930Z,1.40
2018-12-13T10:21:52.441Z,1.50
2018-12-13T10:22:54.954Z,1.50
2018-12-13T10:23:57.466Z,1.60
2018-12-13T10:25:00.018Z,1.60
2018-12-13T10:26:02.533Z,1.70
2018-12-13T10:27:05.038Z,1.80
2018-12-13T10:28:07.601Z,1.80
2018-12-13T10:29:10.138Z,1.80
2018-12-13T10:30:12.750Z,1.80
2018-12-13T10:31:15.374Z,1.80
2018-12-13T10:32:17.892Z,1.90
2018-12-13T10:33:20.398Z,2.00
2018-12-13T10:34:22.907Z,2.00
2018-12-13T10:35:25.406Z,2.00
2018-12-13T10:36:27.945Z,2.00
2018-12-13T10:37:30.474Z,2.00
2018-12-13T10:38:32.982Z,2.00
2018-12-13T10:39:35.488Z,2.00
2018-12-13T10:40:37.995Z,2.00
2018-12-13T10:41:40.562Z,1.90
2018-12-13T10:42:43.068Z,2.00
2018-12-13T10:43:45.581Z,1.90
2018-12-13T10:44:48.093Z,2.00
2018-12-13T10:45:50.609Z,2.00
2018-12-13T10:46:54.110Z,2.00
2018-12-13T10:47:56.946Z,2.00
2018-12-13T10:48:59.458Z,2.00
2018-12-13T10:50:01.974Z,2.10
2018-12-13T10:51:04.479Z,2.10
2018-12-13T10:52:07.075Z,2.10
2018-12-13T10:53:09.588Z,2.10
2018-12-13T10:54:12.155Z,2.20
2018-12-13T10:55:14.653Z,2.20
2018-12-13T10:56:17.154Z,2.10
2018-12-13T10:57:19.658Z,2.10
2018-12-13T10:58:22.173Z,2.20
2018-12-13T10:59:24.730Z,2.20
2018-12-13T11:00:32.999Z,2.10
2018-12-13T11:01:40.349Z,2.10
2018-12-13T11:02:54.851Z,2.20
2018-12-13T11:03:57.360Z,2.10
2018-12-13T11:05:00.205Z,2.10
2018-12-13T11:06:02.961Z,2.20
2018-12-13T11:07:05.464Z,2.10
2018-12-13T11:08:07.965Z,2.10
2018-12-13T11:09:10.470Z,2.00
2018-12-13T11:10:13.091Z,2.10
2018-12-13T11:11:15.781Z,2.00
2018-12-13T11:12:18.289Z,2.00
2018-12-13T11:13:20.794Z,1.90
2018-12-13T11:14:23.301Z,1.90
2018-12-13T11:15:25.810Z,1.90
2018-12-13T11:16:28.361Z,2.00
2018-12-13T11:17:30.865Z,2.00
2018-12-13T11:18:33.365Z,2.10
2018-12-13T11:19:35.871Z,2.20
2018-12-13T11:20:38.495Z,2.20
2018-12-13T11:21:41.045Z,2.20
2018-12-13T11:22:43.557Z,2.20
2018-12-13T11:23:46.066Z,2.30
2018-12-13T11:24:48.577Z,2.20
2018-12-13T11:25:51.147Z,2.20
2018-12-13T11:26:57.681Z,2.20
2018-12-13T11:28:12.956Z,2.30
2018-12-13T11:29:27.389Z,2.30
2018-12-13T11:30:29.945Z,2.40
2018-12-13T11:31:32.457Z,2.40
2018-12-13T11:32:35.009Z,2.40
2018-12-13T11:33:37.522Z,2.30
2018-12-13T11:34:40.021Z,2.40
2018-12-13T11:35:42.574Z,2.30
2018-12-13T11:36:45.085Z,2.30
2018-12-13T11:37:47.626Z,2.30
2018-12-13T11:38:50.136Z,2.30
2018-12-13T11:39:53.089Z,2.30
2018-12-13T11:40:55.601Z,2.30
2018-12-13T11:41:58.116Z,2.30
2018-12-13T11:43:00.750Z,2.20
2018-12-13T11:44:03.259Z,2.20
2018-12-13T11:45:05.870Z,2.10
2018-12-13T11:46:08.379Z,2.10
2018-12-13T11:47:10.889Z,2.20
2018-12-13T11:48:13.441Z,2.20
2018-12-13T11:49:15.950Z,2.10
2018-12-13T11:50:18.453Z,2.10
2018-12-13T11:51:20.973Z,2.10
2018-12-13T11:52:23.485Z,2.20
2018-12-13T11:53:26.042Z,2.20
2018-12-13T11:54:31.459Z,2.20
2018-12-13T11:55:34.367Z,2.30
2018-12-13T11:56:36.877Z,2.40
2018-12-13T11:57:39.433Z,2.40
2018-12-13T11:58:41.981Z,2.40
2018-12-13T11:59:44.533Z,2.50
2018-12-13T12:00:47.051Z,2.50
2018-12-13T12:01:49.557Z,2.50
2018-12-13T12:02:52.113Z,2.50
2018-12-13T12:03:54.648Z,2.50
2018-12-13T12:04:57.164Z,2.40
2018-12-13T12:05:59.722Z,2.40
2018-12-13T12:07:02.233Z,2.40
2018-12-13T12:08:04.743Z,2.40
2018-12-13T12:09:12.226Z,2.30
2018-12-13T12:10:12.029Z,2.30
2018-12-13T12:11:14.541Z,2.30
2018-12-13T12:12:17.045Z,2.30
2018-12-13T12:13:19.558Z,2.30
2018-12-13T12:14:22.081Z,2.30
2018-12-13T12:15:24.688Z,2.40
2018-12-13T12:16:27.188Z,2.40
2018-12-13T12:17:29.746Z,2.40
2018-12-13T12:18:32.261Z,2.40
2018-12-13T12:19:34.769Z,2.30
2018-12-13T12:20:37.317Z,2.30
2018-12-13T12:21:39.826Z,2.20
2018-12-13T12:22:42.337Z,2.20
2018-12-13T12:23:44.845Z,2.30
2018-12-13T12:24:47.402Z,2.30
2018-12-13T12:25:49.949Z,2.30
2018-12-13T12:26:52.462Z,2.20
2018-12-13T12:27:54.969Z,2.10
2018-12-13T12:28:57.478Z,2.20
2018-12-13T12:30:00.025Z,2.30
2018-12-13T12:31:02.587Z,2.20
2018-12-13T12:32:05.089Z,2.30
2018-12-13T12:33:07.604Z,2.30
2018-12-13T12:34:10.130Z,2.30
2018-12-13T12:35:12.745Z,2.20
2018-12-13T12:36:15.286Z,2.30
2018-12-13T12:37:17.849Z,2.20
2018-12-13T12:38:20.359Z,2.30
2018-12-13T12:39:22.865Z,2.30
2018-12-13T12:40:25.386Z,2.30
2018-12-13T12:41:27.941Z,2.30
2018-12-13T12:42:30.446Z,2.30
2018-12-13T12:43:32.957Z,2.30
2018-12-13T12:44:37.422Z,2.30
2018-12-13T12:45:39.917Z,2.30
2018-12-13T12:46:42.486Z,2.30
2018-12-13T12:47:44.989Z,2.30
2018-12-13T12:48:47.506Z,2.30
2018-12-13T12:49:50.016Z,2.40
2018-12-13T12:50:52.526Z,2.40
2018-12-13T12:51:55.065Z,2.30
2018-12-13T12:52:57.608Z,2.30
2018-12-13T12:54:00.109Z,2.30
2018-12-13T12:55:02.722Z,2.20
2018-12-13T12:56:05.326Z,2.20
2018-12-13T12:57:07.844Z,2.30
2018-12-13T12:58:10.363Z,2.30
2018-12-13T12:59:12.869Z,2.30
2018-12-13T13:00:15.366Z,2.30
2018-12-13T13:01:17.917Z,2.20
2018-12-13T13:02:20.464Z,2.20
2018-12-13T13:03:22.980Z,2.20
2018-12-13T13:04:25.506Z,2.20
2018-12-13T13:05:28.117Z,2.10
2018-12-13T13:06:30.669Z,2.10
2018-12-13T13:07:33.173Z,2.20
2018-12-13T13:08:35.685Z,2.20
2018-12-13T13:09:38.194Z,2.20
2018-12-13T13:10:40.704Z,2.20
2018-12-13T13:11:43.250Z,2.20
2018-12-13T13:12:45.761Z,2.20
2018-12-13T13:13:48.261Z,2.10
2018-12-13T13:14:50.810Z,2.10
2018-12-13T13:15:53.417Z,2.10
2018-12-13T13:16:55.914Z,2.10
2018-12-13T13:17:58.441Z,2.10
2018-12-13T13:19:00.953Z,2.20
2018-12-13T13:20:04.282Z,2.10
2018-12-13T13:21:06.831Z,2.20
2018-12-13T13:22:09.329Z,2.10
2018-12-13T13:23:11.837Z,2.10
2018-12-13T13:24:14.344Z,2.20
2018-12-13T13:25:16.851Z,2.20
2018-12-13T13:26:19.395Z,2.20
2018-12-13T13:27:22.025Z,2.20
2018-12-13T13:28:24.581Z,2.20
2018-12-13T13:29:27.085Z,2.30
2018-12-13T13:30:29.588Z,2.30
2018-12-13T13:31:32.105Z,2.30
2018-12-13T13:32:34.609Z,2.30
2018-12-13T13:33:37.170Z,2.40
2018-12-13T13:34:39.681Z,2.30
2018-12-13T13:35:42.208Z,2.20
2018-12-13T13:36:44.721Z,2.20
2018-12-13T13:37:47.221Z,2.20
2018-12-13T13:38:49.769Z,2.10
2018-12-13T13:39:52.345Z,2.10
2018-12-13T13:40:54.954Z,2.00
2018-12-13T13:41:57.502Z,2.00
2018-12-13T13:43:00.019Z,2.00
2018-12-13T13:44:02.634Z,2.00
2018-12-13T13:45:05.893Z,2.00
2018-12-13T13:46:08.403Z,2.00
2018-12-13T13:47:10.907Z,2.00
2018-12-13T13:48:13.430Z,2.00
2018-12-13T13:49:15.995Z,2.00